Time;durP1;ratioP1;P1;durP2;ratioP2;P2;SDS_P1;SDS_P2;PMS_P1;PMS_P2;Temp;Humidity;BMP_temperature;BMP_pressure;BME280_temperature;BME280_humidity;BME280_pressure;Samples;Min_cycle;Max_cycle;Signal;HPM_P1;HPM_P2
2021/03/03 00:02:03;;;;;;;2.42;1.73;;;11.90;73.70;;;;;;5043209;28;20078;-57
2021/03/03 00:04:28;;;;;;;3.55;2.20;;;12.00;73.80;;;;;;5044055;28;20025;-57
2021/03/03 00:06:55;;;;;;;3.15;2.05;;;11.80;73.80;;;;;;5044545;28;20031;-57
2021/03/03 00:09:21;;;;;;;4.10;2.60;;;11.70;74.60;;;;;;5044337;28;20032;-57
2021/03/03 00:11:46;;;;;;;5.25;2.72;;;11.70;74.90;;;;;;5042576;28;20044;-57
2021/03/03 00:14:13;;;;;;;4.22;2.33;;;11.70;75.10;;;;;;5045184;28;20021;-58
2021/03/03 00:16:40;;;;;;;4.28;2.53;;;11.30;75.80;;;;;;5044260;28;20495;-57
2021/03/03 00:19:06;;;;;;;4.60;2.67;;;11.30;75.00;;;;;;5043753;28;20499;-57
2021/03/03 00:21:31;;;;;;;3.55;2.50;;;11.30;75.80;;;;;;5043560;28;20029;-58
2021/03/03 00:23:57;;;;;;;4.03;2.47;;;11.30;76.10;;;;;;5044489;28;20044;-58
2021/03/03 00:26:23;;;;;;;3.42;2.55;;;11.40;76.10;;;;;;5044160;28;20068;-57
2021/03/03 00:28:49;;;;;;;4.47;2.63;;;11.50;76.20;;;;;;5043178;28;20021;-57
2021/03/03 00:31:16;;;;;;;3.60;1.98;;;11.40;76.30;;;;;;5043858;28;20060;-57
2021/03/03 00:33:43;;;;;;;4.68;2.45;;;11.40;76.00;;;;;;5044567;28;20115;-57
2021/03/03 00:36:08;;;;;;;4.10;2.40;;;11.20;76.50;;;;;;5044160;28;20574;-57
2021/03/03 00:38:34;;;;;;;4.13;2.38;;;11.20;76.40;;;;;;5043845;28;20127;-57
2021/03/03 00:40:59;;;;;;;6.78;3.30;;;11.20;77.00;;;;;;5044455;28;20096;-58
2021/03/03 00:43:26;;;;;;;3.67;2.17;;;11.10;76.80;;;;;;5041481;28;20442;-58
2021/03/03 00:45:53;;;;;;;5.22;2.40;;;11.20;76.40;;;;;;5043826;28;20021;-58
2021/03/03 00:48:18;;;;;;;3.55;2.53;;;11.20;76.90;;;;;;5042892;28;20025;-58
2021/03/03 00:50:44;;;;;;;3.95;2.58;;;11.40;76.80;;;;;;5043904;28;20025;-58
2021/03/03 00:53:10;;;;;;;4.90;2.85;;;11.40;76.50;;;;;;5044120;28;20024;-58
2021/03/03 00:55:37;;;;;;;6.18;2.63;;;11.40;76.60;;;;;;5044076;28;20411;-58
2021/03/03 00:58:04;;;;;;;2.80;2.10;;;11.50;76.60;;;;;;5044395;28;20029;-58
2021/03/03 01:00:31;;;;;;;4.97;2.47;;;11.50;77.00;;;;;;5044090;28;20040;-58
2021/03/03 01:02:57;;;;;;;5.15;2.92;;;11.50;76.80;;;;;;5043960;28;20033;-58
2021/03/03 01:05:23;;;;;;;4.47;2.38;;;11.50;76.70;;;;;;5043907;28;20594;-58
2021/03/03 01:07:48;;;;;;;4.43;2.88;;;11.50;77.10;;;;;;5043136;28;20056;-58
2021/03/03 01:10:14;;;;;;;4.10;2.40;;;11.40;76.80;;;;;;5043975;28;20519;-58
2021/03/03 01:12:40;;;;;;;3.20;2.10;;;11.30;76.80;;;;;;5045407;28;20052;-58
2021/03/03 01:15:06;;;;;;;4.07;2.55;;;11.40;77.00;;;;;;5047961;28;20025;-58
2021/03/03 01:17:33;;;;;;;5.00;2.60;;;11.30;76.90;;;;;;5047644;28;20036;-58
2021/03/03 01:19:59;;;;;;;5.15;2.45;;;11.30;77.90;;;;;;5047777;28;20495;-58
2021/03/03 01:22:25;;;;;;;5.10;2.70;;;11.20;76.90;;;;;;5047920;28;20021;-58
2021/03/03 01:24:51;;;;;;;5.53;2.20;;;11.30;77.60;;;;;;5048121;28;20028;-58
2021/03/03 01:27:19;;;;;;;6.60;2.72;;;11.30;77.50;;;;;;5047601;28;20498;-58
2021/03/03 01:29:46;;;;;;;4.43;2.50;;;11.50;77.10;;;;;;5047202;28;20029;-58
2021/03/03 01:32:12;;;;;;;4.53;2.42;;;11.60;76.80;;;;;;5048026;28;20414;-58
2021/03/03 01:34:38;;;;;;;3.35;2.28;;;11.50;76.50;;;;;;5047592;28;20024;-58
2021/03/03 01:37:04;;;;;;;4.55;2.95;;;11.50;76.70;;;;;;5047817;28;20325;-58
2021/03/03 01:39:31;;;;;;;3.95;2.33;;;11.50;77.10;;;;;;5047343;28;20043;-58
2021/03/03 01:41:57;;;;;;;3.35;2.50;;;11.60;76.90;;;;;;5047676;28;20029;-58
2021/03/03 01:44:22;;;;;;;5.32;2.75;;;11.60;76.60;;;;;;5047388;28;20025;-58
2021/03/03 01:46:48;;;;;;;6.22;3.05;;;11.50;76.60;;;;;;5047317;28;20028;-58
2021/03/03 01:49:15;;;;;;;5.10;2.75;;;11.10;76.80;;;;;;5047299;28;20037;-58
2021/03/03 01:51:40;;;;;;;5.32;3.38;;;11.20;78.40;;;;;;5048123;28;20522;-58
2021/03/03 01:54:07;;;;;;;5.97;3.38;;;11.20;78.30;;;;;;5046829;28;20060;-58
2021/03/03 01:56:33;;;;;;;6.57;3.38;;;11.00;78.50;;;;;;5046776;28;20103;-58
2021/03/03 01:58:59;;;;;;;5.28;2.83;;;10.80;78.70;;;;;;5047607;28;20032;-58
2021/03/03 02:01:24;;;;;;;5.25;2.92;;;10.90;79.60;;;;;;5047037;28;20191;-58
2021/03/03 02:03:50;;;;;;;4.75;2.78;;;11.00;79.10;;;;;;5046893;28;20055;-58
2021/03/03 02:06:24;;;;;;;5.53;2.67;;;10.90;79.40;;;;;;5046836;28;20032;-58
2021/03/03 02:09:01;;;;;;;;;;;10.90;79.70;;;;;;5047449;28;20033;-58
2021/03/03 02:11:51;;;;;;;5.38;3.00;;;10.90;80.10;;;;;;5045461;28;19951;-58
2021/03/03 02:14:23;;;;;;;5.22;2.75;;;10.70;80.50;;;;;;5047077;28;20107;-58
2021/03/03 02:16:50;;;;;;;4.88;3.00;;;10.80;80.80;;;;;;5046472;28;20083;-58
2021/03/03 02:19:22;;;;;;;6.15;3.10;;;10.60;81.10;;;;;;5046646;28;20028;-58
2021/03/03 02:22:21;;;;;;;5.55;3.08;;;10.60;80.80;;;;;;5046877;28;20032;-58
2021/03/03 02:25:08;;;;;;;4.72;2.95;;;10.60;81.10;;;;;;5046113;28;20874;-58
2021/03/03 02:27:34;;;;;;;4.13;2.45;;;10.70;80.90;;;;;;5045277;28;20036;-58
2021/03/03 02:30:03;;;;;;;4.88;2.67;;;10.70;81.10;;;;;;5047307;28;20387;-58
2021/03/03 02:32:29;;;;;;;3.90;2.47;;;10.70;80.80;;;;;;5045923;28;20388;-58
2021/03/03 02:34:56;;;;;;;3.25;2.28;;;10.70;80.70;;;;;;5046621;28;20100;-58
2021/03/03 02:37:22;;;;;;;4.78;2.70;;;10.70;80.80;;;;;;5045883;28;20546;-58
2021/03/03 02:39:48;;;;;;;4.40;2.90;;;10.60;81.00;;;;;;5046273;28;20124;-58
2021/03/03 02:42:15;;;;;;;5.38;2.80;;;10.50;81.10;;;;;;5045935;28;20380;-59
2021/03/03 02:44:42;;;;;;;4.85;2.58;;;10.50;81.70;;;;;;5046844;28;20021;-58
2021/03/03 02:47:08;;;;;;;3.95;2.67;;;10.40;81.90;;;;;;5044792;28;20021;-58
2021/03/03 02:49:35;;;;;;;5.50;3.17;;;10.40;82.10;;;;;;5044729;28;20040;-58
2021/03/03 02:52:01;;;;;;;5.82;3.08;;;10.40;82.00;;;;;;5045898;28;20025;-58
2021/03/03 02:54:28;;;;;;;5.00;2.88;;;10.50;81.70;;;;;;5043474;28;20506;-58
2021/03/03 02:56:55;;;;;;;4.68;2.97;;;10.60;81.60;;;;;;5045914;28;20032;-58
2021/03/03 02:59:36;;;;;;;5.95;3.67;;;10.50;81.00;;;;;;5044222;28;20418;-58
2021/03/03 03:02:06;;;;;;;7.07;3.00;;;10.60;81.80;;;;;;5045875;28;20147;-58
2021/03/03 03:04:37;;;;;;;4.22;2.80;;;10.40;82.00;;;;;;5045430;28;20052;-58
2021/03/03 03:07:11;;;;;;;4.38;2.80;;;10.50;81.70;;;;;;5045687;28;20025;-58
2021/03/03 03:09:38;;;;;;;5.35;3.40;;;10.40;82.10;;;;;;5045703;28;20442;-58
2021/03/03 03:12:05;;;;;;;5.47;3.10;;;10.40;82.20;;;;;;5045541;28;20037;-58
2021/03/03 03:14:33;;;;;;;6.93;3.20;;;10.50;82.00;;;;;;5045163;28;20116;-58
2021/03/03 03:17:00;;;;;;;5.07;2.90;;;10.40;82.20;;;;;;5045645;28;20025;-58
2021/03/03 03:19:34;;;;;;;6.95;3.00;;;10.50;82.40;;;;;;5045265;28;20037;-58
2021/03/03 03:22:01;;;;;;;5.30;3.05;;;10.40;81.80;;;;;;5045515;28;20151;-58
2021/03/03 03:24:29;;;;;;;7.15;3.20;;;10.50;82.40;;;;;;5044986;28;20032;-58
2021/03/03 03:26:57;;;;;;;5.18;3.00;;;10.50;82.50;;;;;;5044770;28;20495;-58
2021/03/03 03:29:23;;;;;;;6.28;3.50;;;10.50;82.70;;;;;;5044347;28;20518;-58
2021/03/03 03:31:49;;;;;;;4.90;2.90;;;10.40;82.30;;;;;;5045071;28;20033;-58
2021/03/03 03:34:15;;;;;;;5.35;3.50;;;10.30;83.00;;;;;;5044965;28;20029;-58
2021/03/03 03:36:43;;;;;;;6.43;3.40;;;10.10;83.10;;;;;;5045749;28;20509;-58
2021/03/03 03:39:12;;;;;;;4.78;3.10;;;10.20;83.20;;;;;;5045032;28;20494;-58
2021/03/03 03:41:39;;;;;;;5.63;3.05;;;10.20;83.50;;;;;;5045013;28;20025;-58
2021/03/03 03:44:08;;;;;;;5.95;2.88;;;10.10;83.50;;;;;;5044971;28;20034;-58
2021/03/03 03:46:34;;;;;;;6.35;3.22;;;10.10;83.00;;;;;;5044437;28;20025;-58
2021/03/03 03:49:00;;;;;;;5.78;3.22;;;10.20;83.00;;;;;;5044960;28;20075;-58
2021/03/03 03:51:26;;;;;;;5.13;3.30;;;10.10;83.80;;;;;;5044716;28;20044;-59
2021/03/03 03:53:52;;;;;;;5.97;3.35;;;10.10;83.70;;;;;;5044232;28;20036;-58
2021/03/03 03:56:19;;;;;;;5.68;2.60;;;10.10;84.00;;;;;;5044698;28;20047;-58
2021/03/03 03:58:46;;;;;;;6.47;3.17;;;10.00;84.00;;;;;;5044578;28;20556;-58
2021/03/03 04:01:12;;;;;;;4.85;2.75;;;10.00;84.00;;;;;;5044867;28;20103;-58
2021/03/03 04:03:38;;;;;;;5.82;3.08;;;10.10;84.20;;;;;;5044729;28;20025;-58
2021/03/03 04:06:04;;;;;;;8.15;3.33;;;10.00;84.00;;;;;;5044683;28;20426;-58
2021/03/03 04:08:30;;;;;;;5.90;3.28;;;10.00;84.20;;;;;;5044144;28;20407;-58
2021/03/03 04:10:56;;;;;;;6.93;3.60;;;10.00;84.20;;;;;;5044557;28;20040;-58
2021/03/03 04:13:23;;;;;;;5.25;3.00;;;10.10;84.10;;;;;;5044254;28;20029;-58
2021/03/03 04:15:48;;;;;;;5.43;3.13;;;10.10;83.70;;;;;;5044493;28;20107;-58
2021/03/03 04:18:14;;;;;;;7.47;3.00;;;10.10;83.90;;;;;;5044672;28;20562;-58
2021/03/03 04:20:41;;;;;;;7.53;3.63;;;10.10;83.50;;;;;;5046809;28;20576;-57
2021/03/03 04:23:08;;;;;;;5.40;3.20;;;10.20;83.60;;;;;;5045990;28;20029;-57
2021/03/03 04:25:34;;;;;;;5.97;3.40;;;10.20;83.10;;;;;;5045625;28;20451;-57
2021/03/03 04:28:00;;;;;;;5.45;2.90;;;10.30;83.50;;;;;;5045693;28;20021;-57
2021/03/03 04:30:27;;;;;;;5.10;2.97;;;10.40;83.50;;;;;;5045638;28;20025;-58
2021/03/03 04:32:52;;;;;;;5.00;3.03;;;10.20;83.40;;;;;;5045476;28;20025;-58
2021/03/03 04:35:19;;;;;;;5.82;2.85;;;10.20;83.90;;;;;;5045652;28;20713;-57
2021/03/03 04:37:45;;;;;;;9.07;2.95;;;10.00;84.20;;;;;;5032191;28;20029;-57
2021/03/03 04:40:11;;;;;;;6.40;2.95;;;10.00;83.90;;;;;;5026208;28;20148;-58
2021/03/03 04:42:37;;;;;;;6.13;3.08;;;10.00;84.20;;;;;;5026072;28;20021;-57
2021/03/03 04:45:05;;;;;;;6.97;3.55;;;10.10;84.50;;;;;;5027343;28;20032;-58
2021/03/03 04:47:31;;;;;;;5.88;2.95;;;10.00;84.40;;;;;;5045815;28;20021;-57
2021/03/03 04:49:56;;;;;;;4.53;2.85;;;10.00;84.60;;;;;;5050210;28;20421;-57
2021/03/03 04:52:22;;;;;;;5.55;2.92;;;9.90;84.80;;;;;;5049201;28;20032;-58
2021/03/03 04:54:48;;;;;;;4.70;2.92;;;9.90;84.60;;;;;;5049808;28;20761;-58
2021/03/03 04:57:13;;;;;;;5.18;2.90;;;10.00;85.10;;;;;;5050146;28;20713;-58
2021/03/03 04:59:39;;;;;;;4.95;2.97;;;10.10;84.80;;;;;;5052812;28;20510;-57
2021/03/03 05:02:04;;;;;;;5.85;3.30;;;10.00;84.50;;;;;;5050720;28;20514;-57
2021/03/03 05:04:30;;;;;;;6.70;2.90;;;10.00;85.00;;;;;;5049566;28;20082;-57
2021/03/03 05:06:56;;;;;;;5.25;3.00;;;10.10;85.20;;;;;;5049629;28;20573;-58
2021/03/03 05:09:22;;;;;;;4.85;2.97;;;10.00;85.40;;;;;;5049101;28;20112;-57
2021/03/03 05:11:47;;;;;;;5.05;3.10;;;10.00;85.70;;;;;;5049658;28;20047;-57
2021/03/03 05:14:13;;;;;;;6.57;3.60;;;10.10;85.40;;;;;;5049950;28;20029;-58
2021/03/03 05:16:40;;;;;;;4.95;2.90;;;9.90;85.00;;;;;;5049164;28;20083;-58
2021/03/03 05:19:06;;;;;;;5.40;3.10;;;9.80;85.80;;;;;;5049449;28;20112;-58
2021/03/03 05:21:31;;;;;;;5.30;2.95;;;9.70;86.20;;;;;;5048853;28;20151;-58
2021/03/03 05:23:57;;;;;;;5.97;3.15;;;9.90;86.00;;;;;;5049084;28;20789;-57
2021/03/03 05:26:23;;;;;;;5.03;3.13;;;9.90;85.60;;;;;;5049013;28;20036;-57
2021/03/03 05:28:49;;;;;;;4.57;2.97;;;9.80;86.00;;;;;;5049329;28;20029;-58
2021/03/03 05:31:15;;;;;;;7.28;3.10;;;9.90;86.10;;;;;;5049138;28;20035;-57
2021/03/03 05:33:43;;;;;;;6.75;3.47;;;9.90;86.30;;;;;;5048501;28;20399;-58
2021/03/03 05:36:10;;;;;;;6.00;3.30;;;10.00;86.10;;;;;;5047723;28;20039;-58
2021/03/03 05:38:38;;;;;;;7.00;3.60;;;10.00;85.80;;;;;;5047500;28;20079;-58
2021/03/03 05:41:05;;;;;;;5.05;3.08;;;10.20;85.50;;;;;;5047432;28;20028;-58
2021/03/03 05:43:33;;;;;;;5.72;3.05;;;10.20;85.20;;;;;;5046928;28;20023;-58
2021/03/03 05:46:01;;;;;;;7.90;3.38;;;10.10;85.30;;;;;;5047177;28;20644;-59
2021/03/03 05:48:43;;;;;;;6.53;3.40;;;10.00;85.60;;;;;;5047285;28;20036;-58
2021/03/03 05:51:09;;;;;;;6.00;3.75;;;10.10;85.30;;;;;;5047315;28;20029;-58
2021/03/03 05:53:37;;;;;;;6.30;3.20;;;10.00;85.90;;;;;;5046331;28;20188;-58
2021/03/03 05:56:08;;;;;;;5.18;3.15;;;10.10;85.80;;;;;;5047409;28;20025;-59
2021/03/03 05:58:35;;;;;;;6.70;3.10;;;10.10;85.20;;;;;;5046629;28;20033;-58
2021/03/03 06:01:03;;;;;;;5.32;2.88;;;9.90;85.50;;;;;;5045849;28;20104;-59
2021/03/03 06:03:29;;;;;;;5.95;3.17;;;9.90;85.90;;;;;;5046559;28;20033;-58
2021/03/03 06:05:56;;;;;;;6.28;3.20;;;9.90;85.90;;;;;;5047227;28;20096;-58
2021/03/03 06:08:24;;;;;;;5.68;3.10;;;9.90;85.90;;;;;;5046824;28;20044;-58
2021/03/03 06:10:50;;;;;;;5.93;3.47;;;9.80;85.70;;;;;;5046699;28;20406;-58
2021/03/03 06:13:17;;;;;;;5.20;2.83;;;9.60;86.20;;;;;;5046557;28;20021;-60
2021/03/03 06:15:43;;;;;;;5.75;3.13;;;9.50;85.90;;;;;;5047237;28;20028;-58
2021/03/03 06:18:12;;;;;;;4.93;2.78;;;9.70;86.60;;;;;;5046663;28;20029;-58
2021/03/03 06:20:39;;;;;;;5.75;3.30;;;9.60;86.60;;;;;;5046836;28;20036;-58
2021/03/03 06:23:16;;;;;;;5.18;2.88;;;9.60;86.60;;;;;;5046602;28;20064;-58
2021/03/03 06:25:43;;;;;;;4.57;2.80;;;9.50;86.20;;;;;;5046507;28;20021;-58
2021/03/03 06:28:09;;;;;;;4.95;2.67;;;9.50;86.40;;;;;;5046565;28;20404;-58
2021/03/03 06:30:36;;;;;;;4.22;2.70;;;9.60;86.70;;;;;;5046385;28;20083;-58
2021/03/03 06:33:06;;;;;;;5.50;2.70;;;9.60;86.20;;;;;;5045221;28;20029;-58
2021/03/03 06:35:33;;;;;;;4.43;2.65;;;9.60;86.30;;;;;;5044640;28;20060;-58
2021/03/03 06:37:59;;;;;;;5.00;3.20;;;9.50;86.70;;;;;;5046161;28;20564;-58
2021/03/03 06:40:25;;;;;;;5.15;3.00;;;9.50;86.10;;;;;;5045990;28;20033;-58
2021/03/03 06:42:53;;;;;;;5.53;2.92;;;9.60;86.20;;;;;;5046515;28;20087;-58
2021/03/03 06:45:25;;;;;;;5.53;3.13;;;9.40;86.50;;;;;;5044278;28;20434;-58
2021/03/03 06:47:51;;;;;;;6.40;3.40;;;9.60;86.50;;;;;;5046390;28;20035;-58
2021/03/03 06:50:17;;;;;;;7.82;3.03;;;9.60;86.40;;;;;;5045810;28;20021;-59
2021/03/03 06:52:43;;;;;;;6.10;3.47;;;9.70;86.10;;;;;;5046146;28;20033;-58
2021/03/03 06:55:11;;;;;;;5.85;2.92;;;9.60;86.10;;;;;;5045831;28;20347;-58
2021/03/03 06:57:36;;;;;;;4.65;2.83;;;9.60;86.00;;;;;;5045771;28;20052;-58
2021/03/03 07:00:08;;;;;;;5.22;3.20;;;9.70;86.20;;;;;;5046187;28;20517;-58
2021/03/03 07:02:35;;;;;;;6.13;3.35;;;9.70;85.90;;;;;;5045790;28;20029;-58
2021/03/03 07:05:02;;;;;;;5.75;2.60;;;9.70;85.80;;;;;;5045928;28;20017;-60
2021/03/03 07:07:28;;;;;;;5.85;3.20;;;9.80;85.80;;;;;;5045525;28;20024;-58
2021/03/03 07:09:59;;;;;;;5.72;3.22;;;9.70;86.10;;;;;;5045573;28;20040;-58
2021/03/03 07:12:32;;;;;;;4.82;2.63;;;9.80;85.60;;;;;;5045171;28;20415;-58
2021/03/03 07:15:02;;;;;;;6.20;3.27;;;9.80;86.00;;;;;;5045502;28;20029;-58
2021/03/03 07:17:37;;;;;;;5.22;3.03;;;9.80;86.50;;;;;;5045333;28;20075;-58
2021/03/03 07:20:15;;;;;;;6.13;3.10;;;9.80;85.90;;;;;;5045511;28;20510;-58
2021/03/03 07:22:52;;;;;;;6.03;3.00;;;9.90;85.90;;;;;;5046133;28;20406;-58
2021/03/03 07:25:20;;;;;;;4.60;3.08;;;10.00;85.60;;;;;;5045138;28;20021;-58
2021/03/03 07:27:50;;;;;;;4.38;3.00;;;10.00;86.10;;;;;;5045416;28;20470;-61
2021/03/03 07:30:21;;;;;;;4.90;2.92;;;9.90;85.80;;;;;;5045278;28;20025;-59
2021/03/03 07:32:48;;;;;;;8.13;3.85;;;9.90;85.50;;;;;;5045865;28;20025;-59
2021/03/03 07:35:14;;;;;;;4.72;3.00;;;10.00;85.50;;;;;;5045368;28;20491;-58
2021/03/03 07:37:49;;;;;;;6.10;3.28;;;10.00;85.60;;;;;;5045328;28;20483;-59
2021/03/03 07:40:17;;;;;;;5.90;3.35;;;9.80;85.40;;;;;;5044598;28;20021;-59
2021/03/03 07:42:53;;;;;;;4.72;2.97;;;9.90;85.90;;;;;;5041029;28;20132;-58
2021/03/03 07:45:21;;;;;;;6.07;3.55;;;9.80;85.70;;;;;;5035035;28;20070;-59
2021/03/03 07:47:49;;;;;;;5.30;3.20;;;9.90;85.60;;;;;;5045669;28;20512;-58
2021/03/03 07:50:23;;;;;;;6.53;3.15;;;9.90;85.60;;;;;;5046427;28;20017;-59
2021/03/03 07:52:56;;;;;;;7.32;3.30;;;9.90;85.60;;;;;;5046232;28;20044;-58
2021/03/03 07:55:24;;;;;;;6.45;3.08;;;9.90;85.70;;;;;;5046226;28;20016;-58
2021/03/03 07:57:56;;;;;;;6.65;2.83;;;9.80;85.80;;;;;;5041391;28;20116;-58
2021/03/03 08:00:24;;;;;;;6.07;3.85;;;9.70;85.70;;;;;;5035143;28;20021;-58
2021/03/03 08:02:52;;;;;;;5.47;3.22;;;9.60;86.20;;;;;;5046531;28;20074;-58
2021/03/03 08:05:36;;;;;;;5.15;2.92;;;9.80;86.20;;;;;;5045261;28;20029;-59
2021/03/03 08:08:14;;;;;;;5.05;2.58;;;9.80;85.70;;;;;;5042861;28;20120;-58
2021/03/03 08:10:41;;;;;;;3.60;2.38;;;9.70;85.70;;;;;;5044649;28;20040;-58
2021/03/03 08:13:25;;;;;;;5.65;3.20;;;9.90;85.20;;;;;;5045374;28;20428;-58
2021/03/03 08:15:57;;;;;;;5.88;3.05;;;10.10;83.90;;;;;;5046497;28;20036;-59
2021/03/03 08:18:24;;;;;;;6.25;2.80;;;10.00;85.00;;;;;;5044996;28;20586;-59
2021/03/03 08:20:53;;;;;;;4.43;2.70;;;10.00;83.80;;;;;;5044426;28;20025;-59
2021/03/03 08:23:34;;;;;;;6.45;3.17;;;10.10;84.10;;;;;;5043513;28;20096;-59
2021/03/03 08:26:31;;;;;;;4.22;2.47;;;10.20;84.50;;;;;;5044384;28;20021;-59
2021/03/03 08:29:16;;;;;;;4.57;2.58;;;10.30;83.80;;;;;;5044778;28;20454;-59
2021/03/03 08:31:42;;;;;;;4.18;2.55;;;10.50;84.00;;;;;;5045071;28;20052;-59
2021/03/03 08:34:09;;;;;;;5.65;3.30;;;10.60;83.90;;;;;;5044087;28;20028;-59
2021/03/03 08:36:36;;;;;;;4.60;2.80;;;10.50;83.70;;;;;;5044362;28;20509;-59
2021/03/03 08:39:03;;;;;;;4.22;2.63;;;10.40;84.60;;;;;;5044076;28;20025;-59
2021/03/03 08:41:30;;;;;;;5.43;2.92;;;10.40;84.30;;;;;;5043985;28;20423;-59
2021/03/03 08:44:15;;;;;;;4.78;2.72;;;10.60;84.50;;;;;;5043883;28;20021;-59
2021/03/03 08:46:46;;;;;;;4.65;2.60;;;10.40;83.40;;;;;;5044904;28;20093;-59
2021/03/03 08:49:11;;;;;;;6.72;3.28;;;10.30;85.60;;;;;;5044611;28;20021;-59
2021/03/03 08:51:45;;;;;;;7.07;3.67;;;10.30;85.90;;;;;;5043001;28;20158;-59
2021/03/03 08:54:15;;;;;;;7.23;3.20;;;10.30;85.60;;;;;;5044009;28;20347;-59
2021/03/03 08:56:43;;;;;;;6.80;3.90;;;10.30;86.30;;;;;;5044584;28;20029;-59
2021/03/03 08:59:14;;;;;;;5.22;3.10;;;10.20;86.10;;;;;;5043955;28;20503;-59
2021/03/03 09:02:16;;;;;;;5.95;3.15;;;10.20;85.20;;;;;;5044745;28;20026;-59
2021/03/03 09:04:52;;;;;;;5.40;3.38;;;10.30;85.30;;;;;;5043454;28;20037;-59
2021/03/03 09:07:26;;;;;;;5.07;2.90;;;10.40;85.30;;;;;;5041259;28;20044;-59
2021/03/03 09:09:53;;;;;;;4.35;2.50;;;10.40;85.30;;;;;;5040724;28;20356;-59
2021/03/03 09:12:22;;;;;;;6.15;2.75;;;10.60;85.10;;;;;;5045327;28;20032;-58
2021/03/03 09:14:50;;;;;;;4.95;2.97;;;10.60;85.10;;;;;;5045036;28;20037;-59
2021/03/03 09:17:26;;;;;;;4.60;2.72;;;10.50;85.80;;;;;;5044912;28;20029;-58
2021/03/03 09:19:53;;;;;;;5.53;3.00;;;10.50;84.90;;;;;;5045667;28;20029;-58
2021/03/03 09:22:22;;;;;;;3.42;2.60;;;10.60;85.80;;;;;;5045186;28;20511;-59
2021/03/03 09:24:49;;;;;;;4.57;2.72;;;10.60;86.10;;;;;;5045491;28;20033;-59
2021/03/03 09:27:15;;;;;;;4.05;2.38;;;10.50;85.60;;;;;;5045533;28;20078;-58
2021/03/03 09:29:42;;;;;;;4.47;2.55;;;10.50;86.40;;;;;;5044834;28;20036;-58
2021/03/03 09:32:13;;;;;;;4.18;2.45;;;10.50;86.40;;;;;;5045504;28;20028;-58
2021/03/03 09:34:54;;;;;;;5.22;2.80;;;10.60;86.20;;;;;;5045539;28;20031;-59
2021/03/03 09:37:21;;;;;;;4.00;2.70;;;10.70;85.80;;;;;;5047230;28;20129;-59
2021/03/03 09:39:52;;;;;;;5.20;3.45;;;10.70;85.90;;;;;;5048417;28;20033;-52
2021/03/03 09:42:17;;;;;;;4.93;2.78;;;10.60;86.50;;;;;;5047202;28;20028;-53
2021/03/03 09:44:57;;;;;;;8.13;3.33;;;10.80;86.70;;;;;;5048480;28;20047;-53
2021/03/03 09:47:33;;;;;;;4.07;2.42;;;10.80;85.80;;;;;;5045234;28;20658;-53
2021/03/03 09:50:01;;;;;;;4.95;2.72;;;10.80;86.60;;;;;;5045563;28;20033;-54
2021/03/03 09:52:35;;;;;;;4.30;2.53;;;10.90;85.60;;;;;;5045539;28;20028;-53
2021/03/03 09:55:01;;;;;;;4.82;2.95;;;10.90;85.60;;;;;;5047301;28;20053;-51
2021/03/03 09:57:29;;;;;;;3.25;2.30;;;11.00;85.80;;;;;;5046889;28;20021;-53
2021/03/03 09:59:57;;;;;;;4.25;2.63;;;11.10;84.70;;;;;;5046993;28;20051;-52
2021/03/03 10:02:25;;;;;;;6.65;3.15;;;11.00;85.00;;;;;;5046857;28;20102;-53
2021/03/03 10:04:52;;;;;;;3.85;2.50;;;11.00;83.80;;;;;;5046723;28;20537;-52
2021/03/03 10:07:23;;;;;;;3.53;2.50;;;11.00;85.00;;;;;;5046931;28;20113;-52
2021/03/03 10:09:57;;;;;;;5.68;2.75;;;11.00;86.20;;;;;;5045658;28;20428;-53
2021/03/03 10:12:33;;;;;;;5.15;2.67;;;10.90;85.70;;;;;;5046503;28;20432;-53
2021/03/03 10:15:07;;;;;;;4.90;2.25;;;11.00;87.10;;;;;;5046678;28;20702;-50
2021/03/03 10:17:39;;;;;;;4.15;2.63;;;11.10;86.00;;;;;;5046724;28;20053;-53
2021/03/03 10:20:26;;;;;;;5.72;2.95;;;11.20;86.30;;;;;;5046856;28;20069;-53
2021/03/03 10:22:52;;;;;;;5.03;2.65;;;11.30;87.00;;;;;;5046753;28;20380;-53
2021/03/03 10:25:30;;;;;;;3.85;2.40;;;11.40;87.70;;;;;;5046148;28;20106;-54
2021/03/03 10:28:09;;;;;;;6.90;2.95;;;11.40;87.70;;;;;;5046574;28;20017;-53
2021/03/03 10:30:37;;;;;;;5.07;2.55;;;11.50;87.70;;;;;;5046260;28;20028;-53
2021/03/03 10:33:03;;;;;;;5.90;2.75;;;11.50;88.10;;;;;;5046713;28;20009;-53
2021/03/03 10:35:30;;;;;;;3.30;2.63;;;11.40;88.00;;;;;;5046231;28;20024;-53
2021/03/03 10:38:17;;;;;;;4.65;2.50;;;11.30;87.90;;;;;;5046458;28;20024;-53
2021/03/03 10:40:44;;;;;;;4.35;2.70;;;11.20;88.30;;;;;;5046567;28;20025;-53
2021/03/03 10:43:30;;;;;;;5.63;2.97;;;11.20;88.70;;;;;;5046729;28;20037;-53
2021/03/03 10:46:17;;;;;;;5.18;3.20;;;11.20;89.10;;;;;;5045396;28;20029;-53
2021/03/03 10:48:43;;;;;;;4.93;2.97;;;11.20;89.70;;;;;;5046936;28;20051;-53
2021/03/03 10:51:11;;;;;;;5.40;3.15;;;11.30;89.70;;;;;;5046397;28;20029;-52
2021/03/03 10:53:46;;;;;;;5.72;3.35;;;11.40;89.60;;;;;;5045681;28;20561;-52
2021/03/03 10:56:28;;;;;;;4.63;2.88;;;11.30;89.40;;;;;;5046551;28;20070;-52
2021/03/03 10:59:11;;;;;;;4.80;2.80;;;11.30;89.90;;;;;;5045630;28;20115;-53
2021/03/03 11:01:46;;;;;;;4.88;2.90;;;11.50;87.80;;;;;;5044424;28;20492;-53
2021/03/03 11:04:14;;;;;;;3.92;2.83;;;11.70;90.00;;;;;;5046552;28;20108;-53
2021/03/03 11:06:40;;;;;;;5.90;2.97;;;11.60;88.20;;;;;;5044794;28;20032;-52
2021/03/03 11:09:15;;;;;;;4.57;2.65;;;11.90;87.10;;;;;;5046040;28;20032;-52
2021/03/03 11:11:51;;;;;;;4.50;2.28;;;12.00;87.20;;;;;;5046306;28;20064;-52
2021/03/03 11:14:17;;;;;;;4.47;2.45;;;12.00;88.20;;;;;;5045363;28;20083;-52
2021/03/03 11:16:50;;;;;;;4.72;2.70;;;12.10;90.00;;;;;;5046493;28;20106;-52
2021/03/03 11:19:16;;;;;;;3.08;2.22;;;12.00;89.30;;;;;;5045353;28;20040;-51
2021/03/03 11:21:43;;;;;;;5.95;2.95;;;12.10;87.10;;;;;;5046447;28;20044;-51
2021/03/03 11:24:09;;;;;;;3.25;2.22;;;12.10;87.80;;;;;;5045595;28;20028;-53
2021/03/03 11:26:36;;;;;;;4.43;2.38;;;12.30;88.50;;;;;;5045356;28;20039;-54
2021/03/03 11:29:04;;;;;;;2.78;1.85;;;12.30;84.90;;;;;;5045841;28;20075;-51
2021/03/03 11:31:30;;;;;;;4.50;1.95;;;12.40;86.70;;;;;;5044915;28;20070;-54
2021/03/03 11:33:56;;;;;;;5.07;2.95;;;12.40;86.80;;;;;;5044854;28;20039;-51
2021/03/03 11:36:22;;;;;;;4.28;2.75;;;12.40;83.20;;;;;;5042970;28;20116;-52
2021/03/03 11:38:48;;;;;;;5.25;2.55;;;12.50;80.60;;;;;;5046821;28;20036;-53
2021/03/03 11:41:14;;;;;;;7.43;3.13;;;12.50;78.90;;;;;;5047538;28;20041;-50
2021/03/03 11:43:40;;;;;;;4.65;2.40;;;12.50;79.90;;;;;;5031766;28;20038;-52
2021/03/03 11:46:06;;;;;;;4.55;2.80;;;12.50;81.00;;;;;;5026890;28;20029;-52
2021/03/03 11:48:32;;;;;;;5.43;2.67;;;12.40;78.40;;;;;;5026630;28;20036;-52
2021/03/03 11:50:57;;;;;;;5.53;2.90;;;12.60;78.70;;;;;;5027096;28;20407;-53
2021/03/03 11:53:23;;;;;;;4.45;2.85;;;12.70;77.60;;;;;;5026155;28;20041;-53
2021/03/03 11:55:49;;;;;;;5.90;3.30;;;12.80;77.70;;;;;;5040846;28;20526;-52
2021/03/03 11:58:15;;;;;;;6.90;3.40;;;12.80;75.60;;;;;;5046188;28;20031;-53
2021/03/03 12:00:40;;;;;;;5.65;3.28;;;12.80;74.10;;;;;;5047183;28;20044;-51
2021/03/03 12:03:06;;;;;;;5.13;2.88;;;12.90;75.20;;;;;;5045943;28;20033;-50
2021/03/03 12:05:33;;;;;;;5.00;2.72;;;13.00;75.20;;;;;;5045645;28;20090;-53
2021/03/03 12:07:59;;;;;;;7.82;3.65;;;13.10;73.30;;;;;;5040145;28;20135;-53
2021/03/03 12:10:24;;;;;;;5.43;3.25;;;13.00;72.90;;;;;;5044128;28;20112;-52
2021/03/03 12:12:50;;;;;;;2.97;2.38;;;13.10;73.10;;;;;;5045202;28;20025;-52
2021/03/03 12:15:16;;;;;;;4.00;2.00;;;13.20;72.20;;;;;;5046014;28;20477;-51
2021/03/03 12:17:43;;;;;;;4.80;2.58;;;13.20;72.70;;;;;;5047044;28;20052;-50
2021/03/03 12:20:10;;;;;;;3.03;2.00;;;13.20;73.00;;;;;;5046575;28;20028;-52
2021/03/03 12:22:35;;;;;;;3.97;2.35;;;13.20;72.30;;;;;;5046076;28;20473;-52
2021/03/03 12:25:04;;;;;;;3.33;1.90;;;13.20;71.40;;;;;;5044973;28;20013;-54
2021/03/03 12:27:29;;;;;;;4.22;2.03;;;13.20;71.60;;;;;;5042905;28;20029;-53
2021/03/03 12:29:55;;;;;;;5.68;2.63;;;13.20;72.00;;;;;;5045670;28;20115;-53
2021/03/03 12:32:21;;;;;;;3.75;2.05;;;13.30;72.10;;;;;;5043455;28;20033;-53
2021/03/03 12:34:46;;;;;;;6.28;2.63;;;13.30;71.80;;;;;;5045324;28;20029;-52
2021/03/03 12:37:13;;;;;;;5.55;2.47;;;13.40;72.60;;;;;;5046260;28;20029;-51
2021/03/03 12:39:39;;;;;;;4.18;2.40;;;13.40;72.50;;;;;;5044595;28;20025;-50
2021/03/03 12:42:04;;;;;;;4.13;2.45;;;13.40;72.20;;;;;;5037611;28;20148;-52
2021/03/03 12:44:30;;;;;;;5.68;2.90;;;13.40;72.30;;;;;;5041998;28;20017;-48
2021/03/03 12:46:56;;;;;;;4.82;2.75;;;13.40;71.30;;;;;;5037529;28;20392;-53
2021/03/03 12:49:23;;;;;;;6.05;2.80;;;13.40;73.00;;;;;;5045797;28;20033;-53
2021/03/03 12:51:49;;;;;;;5.65;3.03;;;13.50;71.90;;;;;;5044382;28;20141;-53
2021/03/03 12:54:15;;;;;;;6.57;3.10;;;13.50;71.40;;;;;;5043282;28;20427;-53
2021/03/03 12:56:41;;;;;;;6.72;4.00;;;13.50;70.90;;;;;;5042761;28;20521;-52